sensor_id;sensor_type;location;lat;lon;timestamp;pressure;altitude;pressure_sealevel;temperature;humidity
72525;BME280;60547;48.502;8.996;2023-04-21T00:00:56;97552.97;;;4.61;93.70
72525;BME280;60547;48.502;8.996;2023-04-21T00:03:23;97538.09;;;4.51;94.20
72525;BME280;60547;48.502;8.996;2023-04-21T00:05:50;97554.97;;;4.57;94.18
72525;BME280;60547;48.502;8.996;2023-04-21T00:08:17;97550.72;;;4.49;94.47
72525;BME280;60547;48.502;8.996;2023-04-21T00:10:43;97560.97;;;4.45;94.13
72525;BME280;60547;48.502;8.996;2023-04-21T00:13:09;97554.66;;;4.48;94.32
72525;BME280;60547;48.502;8.996;2023-04-21T00:15:35;97555.41;;;4.52;94.69
72525;BME280;60547;48.502;8.996;2023-04-21T00:18:01;97543.63;;;4.51;95.44
72525;BME280;60547;48.502;8.996;2023-04-21T00:20:28;97523.97;;;4.46;95.16
72525;BME280;60547;48.502;8.996;2023-04-21T00:22:55;97538.84;;;4.59;94.65
72525;BME280;60547;48.502;8.996;2023-04-21T00:25:21;97509.81;;;4.44;94.70
72525;BME280;60547;48.502;8.996;2023-04-21T00:27:47;97515.00;;;4.38;95.14
72525;BME280;60547;48.502;8.996;2023-04-21T00:30:12;97504.81;;;4.32;95.73
72525;BME280;60547;48.502;8.996;2023-04-21T00:32:38;97497.34;;;4.29;95.30
72525;BME280;60547;48.502;8.996;2023-04-21T00:35:04;97523.59;;;4.44;94.74
72525;BME280;60547;48.502;8.996;2023-04-21T00:37:29;97521.72;;;4.30;94.69
72525;BME280;60547;48.502;8.996;2023-04-21T00:39:55;97513.16;;;4.21;94.35
72525;BME280;60547;48.502;8.996;2023-04-21T00:42:21;97511.56;;;4.24;94.47
72525;BME280;60547;48.502;8.996;2023-04-21T00:44:46;97530.72;;;4.38;95.45
72525;BME280;60547;48.502;8.996;2023-04-21T00:47:12;97527.22;;;4.34;95.50
72525;BME280;60547;48.502;8.996;2023-04-21T00:49:37;97519.38;;;4.29;95.68
72525;BME280;60547;48.502;8.996;2023-04-21T00:52:04;97515.06;;;4.28;95.52
72525;BME280;60547;48.502;8.996;2023-04-21T00:54:31;97522.50;;;4.34;95.32
72525;BME280;60547;48.502;8.996;2023-04-21T00:56:56;97520.16;;;4.33;95.62
72525;BME280;60547;48.502;8.996;2023-04-21T00:59:26;97515.44;;;4.30;95.46
72525;BME280;60547;48.502;8.996;2023-04-21T01:01:52;97509.09;;;4.36;95.53
72525;BME280;60547;48.502;8.996;2023-04-21T01:04:18;97522.44;;;4.41;95.31
72525;BME280;60547;48.502;8.996;2023-04-21T01:06:43;97524.03;;;4.39;95.32
72525;BME280;60547;48.502;8.996;2023-04-21T01:09:09;97534.28;;;4.38;95.52
72525;BME280;60547;48.502;8.996;2023-04-21T01:11:37;97534.34;;;4.28;95.29
72525;BME280;60547;48.502;8.996;2023-04-21T01:14:03;97515.88;;;4.25;94.23
72525;BME280;60547;48.502;8.996;2023-04-21T01:16:29;97528.06;;;4.24;94.71
72525;BME280;60547;48.502;8.996;2023-04-21T01:18:59;97528.94;;;4.13;95.06
72525;BME280;60547;48.502;8.996;2023-04-21T01:21:25;97532.81;;;4.19;95.92
72525;BME280;60547;48.502;8.996;2023-04-21T01:23:51;97526.25;;;3.99;95.29
72525;BME280;60547;48.502;8.996;2023-04-21T01:26:21;97529.38;;;4.05;96.43
72525;BME280;60547;48.502;8.996;2023-04-21T01:28:47;97539.97;;;4.10;96.01
72525;BME280;60547;48.502;8.996;2023-04-21T01:31:16;97530.53;;;4.11;96.48
72525;BME280;60547;48.502;8.996;2023-04-21T01:33:43;97530.91;;;4.09;95.70
72525;BME280;60547;48.502;8.996;2023-04-21T01:36:09;97520.41;;;3.90;96.31
72525;BME280;60547;48.502;8.996;2023-04-21T01:38:41;97518.06;;;3.88;96.43
72525;BME280;60547;48.502;8.996;2023-04-21T01:41:07;97532.16;;;4.01;96.41
72525;BME280;60547;48.502;8.996;2023-04-21T01:43:33;97525.06;;;4.00;97.21
72525;BME280;60547;48.502;8.996;2023-04-21T01:45:59;97521.97;;;3.91;97.36
72525;BME280;60547;48.502;8.996;2023-04-21T01:48:25;97540.03;;;3.99;97.58
72525;BME280;60547;48.502;8.996;2023-04-21T01:50:50;97530.97;;;4.02;97.59
72525;BME280;60547;48.502;8.996;2023-04-21T01:53:16;97537.63;;;4.08;97.11
72525;BME280;60547;48.502;8.996;2023-04-21T01:55:41;97529.81;;;3.96;97.35
72525;BME280;60547;48.502;8.996;2023-04-21T01:58:07;97539.59;;;4.08;97.29
72525;BME280;60547;48.502;8.996;2023-04-21T02:00:32;97537.63;;;4.08;97.16
72525;BME280;60547;48.502;8.996;2023-04-21T02:02:57;97528.25;;;3.95;96.92
72525;BME280;60547;48.502;8.996;2023-04-21T02:05:23;97562.00;;;4.06;97.27
72525;BME280;60547;48.502;8.996;2023-04-21T02:07:48;97529.06;;;3.92;96.73
72525;BME280;60547;48.502;8.996;2023-04-21T02:10:14;97551.06;;;3.92;96.25
72525;BME280;60547;48.502;8.996;2023-04-21T02:12:40;97553.38;;;4.01;95.74
72525;BME280;60547;48.502;8.996;2023-04-21T02:15:06;97533.84;;;3.81;96.31
72525;BME280;60547;48.502;8.996;2023-04-21T02:17:32;97553.41;;;3.97;95.80
72525;BME280;60547;48.502;8.996;2023-04-21T02:19:57;97487.59;;;3.51;96.29
72525;BME280;60547;48.502;8.996;2023-04-21T02:22:23;97550.22;;;4.06;95.56
72525;BME280;60547;48.502;8.996;2023-04-21T02:24:49;97538.88;;;3.93;95.93
72525;BME280;60547;48.502;8.996;2023-04-21T02:27:15;97548.75;;;3.87;95.98
72525;BME280;60547;48.502;8.996;2023-04-21T02:29:40;97539.25;;;3.95;96.62
72525;BME280;60547;48.502;8.996;2023-04-21T02:32:06;97552.00;;;3.61;96.11
72525;BME280;60547;48.502;8.996;2023-04-21T02:34:32;97557.47;;;3.71;97.71
72525;BME280;60547;48.502;8.996;2023-04-21T02:36:57;97506.50;;;3.38;97.60
72525;BME280;60547;48.502;8.996;2023-04-21T02:39:24;97542.09;;;3.81;97.36
72525;BME280;60547;48.502;8.996;2023-04-21T02:41:50;97536.22;;;3.72;95.87
72525;BME280;60547;48.502;8.996;2023-04-21T02:44:15;97563.78;;;3.65;96.12
72525;BME280;60547;48.502;8.996;2023-04-21T02:46:41;97561.00;;;3.72;95.81
72525;BME280;60547;48.502;8.996;2023-04-21T02:49:08;97532.34;;;3.62;96.18
72525;BME280;60547;48.502;8.996;2023-04-21T02:51:33;97519.78;;;3.58;97.37
72525;BME280;60547;48.502;8.996;2023-04-21T02:53:59;97502.09;;;3.62;97.05
72525;BME280;60547;48.502;8.996;2023-04-21T02:56:25;97522.06;;;3.73;96.44
72525;BME280;60547;48.502;8.996;2023-04-21T02:58:50;97520.94;;;3.67;96.27
72525;BME280;60547;48.502;8.996;2023-04-21T03:01:15;97535.44;;;3.75;96.44
72525;BME280;60547;48.502;8.996;2023-04-21T03:03:41;97522.53;;;3.61;95.02
72525;BME280;60547;48.502;8.996;2023-04-21T03:06:06;97521.75;;;3.61;93.98
72525;BME280;60547;48.502;8.996;2023-04-21T03:08:32;97529.16;;;3.71;93.83
72525;BME280;60547;48.502;8.996;2023-04-21T03:10:59;97512.72;;;3.60;93.60
72525;BME280;60547;48.502;8.996;2023-04-21T03:13:25;97525.34;;;3.47;93.79
72525;BME280;60547;48.502;8.996;2023-04-21T03:15:50;97522.16;;;3.55;93.55
72525;BME280;60547;48.502;8.996;2023-04-21T03:18:16;97540.19;;;3.64;93.57
72525;BME280;60547;48.502;8.996;2023-04-21T03:20:42;97540.19;;;3.64;93.31
72525;BME280;60547;48.502;8.996;2023-04-21T03:23:08;97529.97;;;3.64;92.97
72525;BME280;60547;48.502;8.996;2023-04-21T03:25:33;97533.16;;;3.59;91.89
72525;BME280;60547;48.502;8.996;2023-04-21T03:27:59;97525.72;;;3.45;91.92
72525;BME280;60547;48.502;8.996;2023-04-21T03:30:24;97521.03;;;3.42;93.10
72525;BME280;60547;48.502;8.996;2023-04-21T03:32:50;97508.09;;;3.32;92.82
72525;BME280;60547;48.502;8.996;2023-04-21T03:35:16;97525.31;;;3.50;92.19
72525;BME280;60547;48.502;8.996;2023-04-21T03:37:42;97540.25;;;3.53;91.89
72525;BME280;60547;48.502;8.996;2023-04-21T03:40:09;97539.50;;;3.45;91.46
72525;BME280;60547;48.502;8.996;2023-04-21T03:42:35;97546.63;;;3.25;91.89
72525;BME280;60547;48.502;8.996;2023-04-21T03:45:02;97524.63;;;3.21;92.16
72525;BME280;60547;48.502;8.996;2023-04-21T03:47:28;97528.53;;;3.31;91.87
72525;BME280;60547;48.502;8.996;2023-04-21T03:49:54;97540.28;;;3.39;91.43
72525;BME280;60547;48.502;8.996;2023-04-21T03:52:19;97534.03;;;3.31;91.56
72525;BME280;60547;48.502;8.996;2023-04-21T03:54:45;97536.38;;;3.40;91.97
72525;BME280;60547;48.502;8.996;2023-04-21T03:57:11;97518.31;;;3.32;91.67
72525;BME280;60547;48.502;8.996;2023-04-21T03:59:36;97512.06;;;3.28;91.75
72525;BME280;60547;48.502;8.996;2023-04-21T04:02:01;97532.41;;;3.44;91.73
72525;BME280;60547;48.502;8.996;2023-04-21T04:04:27;97530.06;;;3.39;91.88
72525;BME280;60547;48.502;8.996;2023-04-21T04:06:52;97534.03;;;3.35;92.08
72525;BME280;60547;48.502;8.996;2023-04-21T04:09:18;97495.19;;;3.15;92.25
72525;BME280;60547;48.502;8.996;2023-04-21T04:11:43;97506.53;;;3.31;90.91
72525;BME280;60547;48.502;8.996;2023-04-21T04:14:09;97510.81;;;3.39;91.49
72525;BME280;60547;48.502;8.996;2023-04-21T04:16:34;97510.88;;;3.29;91.53
72525;BME280;60547;48.502;8.996;2023-04-21T04:19:00;97526.97;;;3.30;91.93
72525;BME280;60547;48.502;8.996;2023-04-21T04:21:26;97514.81;;;3.24;91.97
72525;BME280;60547;48.502;8.996;2023-04-21T04:23:52;97517.56;;;3.24;91.75
72525;BME280;60547;48.502;8.996;2023-04-21T04:26:18;97511.72;;;3.08;92.24
72525;BME280;60547;48.502;8.996;2023-04-21T04:28:44;97538.75;;;3.27;92.13
72525;BME280;60547;48.502;8.996;2023-04-21T04:31:10;97508.94;;;3.18;92.98
72525;BME280;60547;48.502;8.996;2023-04-21T04:33:40;97526.16;;;3.33;92.12
72525;BME280;60547;48.502;8.996;2023-04-21T04:36:07;97523.09;;;3.10;92.31
72525;BME280;60547;48.502;8.996;2023-04-21T04:38:32;97533.28;;;3.20;93.35
72525;BME280;60547;48.502;8.996;2023-04-21T04:40:59;97529.75;;;3.23;93.43
72525;BME280;60547;48.502;8.996;2023-04-21T04:43:26;97539.56;;;3.20;92.99
72525;BME280;60547;48.502;8.996;2023-04-21T04:45:52;97542.31;;;3.24;93.41
72525;BME280;60547;48.502;8.996;2023-04-21T04:48:18;97546.63;;;3.25;92.84
72525;BME280;60547;48.502;8.996;2023-04-21T04:50:43;97544.28;;;3.20;93.86
72525;BME280;60547;48.502;8.996;2023-04-21T04:53:09;97552.13;;;3.25;94.01
72525;BME280;60547;48.502;8.996;2023-04-21T04:55:34;97554.06;;;3.32;93.59
72525;BME280;60547;48.502;8.996;2023-04-21T04:58:00;97546.22;;;3.23;92.78
72525;BME280;60547;48.502;8.996;2023-04-21T05:00:26;97558.38;;;3.29;93.36
72525;BME280;60547;48.502;8.996;2023-04-21T05:02:53;97554.84;;;3.32;93.19
72525;BME280;60547;48.502;8.996;2023-04-21T05:05:19;97548.19;;;3.26;93.16
72525;BME280;60547;48.502;8.996;2023-04-21T05:07:46;97557.59;;;3.32;93.28
72525;BME280;60547;48.502;8.996;2023-04-21T05:10:12;97554.47;;;3.23;93.48
72525;BME280;60547;48.502;8.996;2023-04-21T05:12:40;97556.84;;;3.17;93.45
72525;BME280;60547;48.502;8.996;2023-04-21T05:15:06;97552.53;;;3.20;93.62
72525;BME280;60547;48.502;8.996;2023-04-21T05:17:32;97548.19;;;3.26;94.16
72525;BME280;60547;48.502;8.996;2023-04-21T05:19:58;97564.66;;;3.40;93.69
72525;BME280;60547;48.502;8.996;2023-04-21T05:22:24;97564.63;;;3.44;93.80
72525;BME280;60547;48.502;8.996;2023-04-21T05:24:51;97553.66;;;3.33;93.54
72525;BME280;60547;48.502;8.996;2023-04-21T05:27:16;97571.34;;;3.36;94.57
72525;BME280;60547;48.502;8.996;2023-04-21T05:29:42;97558.00;;;3.31;93.76
72525;BME280;60547;48.502;8.996;2023-04-21T05:32:08;97561.50;;;3.38;93.51
72525;BME280;60547;48.502;8.996;2023-04-21T05:34:34;97568.56;;;3.39;93.54
72525;BME280;60547;48.502;8.996;2023-04-21T05:36:59;97568.56;;;3.39;93.45
72525;BME280;60547;48.502;8.996;2023-04-21T05:39:27;97578.75;;;3.49;93.19
72525;BME280;60547;48.502;8.996;2023-04-21T05:41:53;97568.22;;;3.27;93.49
72525;BME280;60547;48.502;8.996;2023-04-21T05:44:18;97570.16;;;3.37;93.66
72525;BME280;60547;48.502;8.996;2023-04-21T05:46:44;97565.44;;;3.41;93.79
72525;BME280;60547;48.502;8.996;2023-04-21T05:49:09;97567.38;;;3.47;93.87
72525;BME280;60547;48.502;8.996;2023-04-21T05:51:35;97555.56;;;3.54;93.82
72525;BME280;60547;48.502;8.996;2023-04-21T05:54:00;97552.81;;;3.54;93.64
72525;BME280;60547;48.502;8.996;2023-04-21T05:56:26;97550.88;;;3.47;94.11
72525;BME280;60547;48.502;8.996;2023-04-21T05:58:51;97550.47;;;3.45;94.07
72525;BME280;60547;48.502;8.996;2023-04-21T06:01:17;97538.44;;;2.97;95.34
72525;BME280;60547;48.502;8.996;2023-04-21T06:03:43;97538.03;;;3.09;95.90
72525;BME280;60547;48.502;8.996;2023-04-21T06:06:09;97551.34;;;3.24;95.41
72525;BME280;60547;48.502;8.996;2023-04-21T06:08:36;97564.28;;;3.31;95.56
72525;BME280;60547;48.502;8.996;2023-04-21T06:11:01;97561.53;;;3.31;95.45
72525;BME280;60547;48.502;8.996;2023-04-21T06:13:27;97568.53;;;3.50;94.53
72525;BME280;60547;48.502;8.996;2023-04-21T06:15:53;97564.19;;;3.56;94.62
72525;BME280;60547;48.502;8.996;2023-04-21T06:18:19;97558.66;;;3.63;94.30
72525;BME280;60547;48.502;8.996;2023-04-21T06:20:52;97550.75;;;3.76;93.75
72525;BME280;60547;48.502;8.996;2023-04-21T06:23:17;97537.78;;;3.76;93.07
72525;BME280;60547;48.502;8.996;2023-04-21T06:25:43;97544.81;;;3.88;93.09
72525;BME280;60547;48.502;8.996;2023-04-21T06:28:08;97547.94;;;3.90;92.66
72525;BME280;60547;48.502;8.996;2023-04-21T06:30:34;97545.59;;;3.85;92.86
72525;BME280;60547;48.502;8.996;2023-04-21T06:32:59;97548.72;;;3.91;92.76
72525;BME280;60547;48.502;8.996;2023-04-21T06:35:25;97536.91;;;3.94;92.40
72525;BME280;60547;48.502;8.996;2023-04-21T06:37:51;97551.38;;;4.08;91.80
72525;BME280;60547;48.502;8.996;2023-04-21T06:40:16;97544.78;;;3.95;91.20
72525;BME280;60547;48.502;8.996;2023-04-21T06:42:42;97550.38;;;3.74;92.15
72525;BME280;60547;48.502;8.996;2023-04-21T06:45:08;97558.97;;;3.86;91.91
72525;BME280;60547;48.502;8.996;2023-04-21T06:47:33;97538.50;;;3.87;91.33
72525;BME280;60547;48.502;8.996;2023-04-21T06:49:59;97557.06;;;3.73;91.93
72525;BME280;60547;48.502;8.996;2023-04-21T06:52:24;97554.28;;;3.80;91.71
72525;BME280;60547;48.502;8.996;2023-04-21T06:54:50;97571.13;;;3.89;92.02
72525;BME280;60547;48.502;8.996;2023-04-21T06:57:15;97555.84;;;3.81;92.58
72525;BME280;60547;48.502;8.996;2023-04-21T06:59:42;97539.00;;;3.72;92.47
72525;BME280;60547;48.502;8.996;2023-04-21T07:02:08;97557.72;;;3.98;92.31
72525;BME280;60547;48.502;8.996;2023-04-21T07:04:33;97556.16;;;3.97;92.17
72525;BME280;60547;48.502;8.996;2023-04-21T07:06:59;97553.13;;;3.74;92.15
72525;BME280;60547;48.502;8.996;2023-04-21T07:09:25;97567.63;;;3.85;92.01
72525;BME280;60547;48.502;8.996;2023-04-21T07:11:53;97549.97;;;3.79;92.65
72525;BME280;60547;48.502;8.996;2023-04-21T07:14:19;97565.13;;;4.12;91.48
72525;BME280;60547;48.502;8.996;2023-04-21T07:16:45;97555.66;;;4.16;90.93
72525;BME280;60547;48.502;8.996;2023-04-21T07:19:10;97554.03;;;4.26;90.63
72525;BME280;60547;48.502;8.996;2023-04-21T07:21:36;97559.84;;;4.39;90.96
72525;BME280;60547;48.502;8.996;2023-04-21T07:24:02;97561.84;;;4.35;91.84
72525;BME280;60547;48.502;8.996;2023-04-21T07:26:27;97552.31;;;4.46;91.79
72525;BME280;60547;48.502;8.996;2023-04-21T07:28:53;97537.44;;;4.37;92.05
72525;BME280;60547;48.502;8.996;2023-04-21T07:31:25;97549.69;;;4.29;92.46
72525;BME280;60547;48.502;8.996;2023-04-21T07:33:50;97552.97;;;4.61;91.54
72525;BME280;60547;48.502;8.996;2023-04-21T07:36:16;97544.66;;;4.68;90.89
72525;BME280;60547;48.502;8.996;2023-04-21T07:38:42;97551.19;;;4.89;90.09
72525;BME280;60547;48.502;8.996;2023-04-21T07:41:11;97560.19;;;4.93;90.65
72525;BME280;60547;48.502;8.996;2023-04-21T07:43:37;97551.13;;;4.96;89.42
72525;BME280;60547;48.502;8.996;2023-04-21T07:46:03;97550.31;;;4.99;89.67
72525;BME280;60547;48.502;8.996;2023-04-21T07:48:29;97548.72;;;4.98;89.62
72525;BME280;60547;48.502;8.996;2023-04-21T07:50:55;97549.75;;;4.70;90.02
72525;BME280;60547;48.502;8.996;2023-04-21T07:53:22;97534.50;;;5.03;89.60
72525;BME280;60547;48.502;8.996;2023-04-21T07:55:48;97538.16;;;5.30;89.06
72525;BME280;60547;48.502;8.996;2023-04-21T07:58:13;97534.19;;;5.35;88.26
72525;BME280;60547;48.502;8.996;2023-04-21T08:00:39;97521.88;;;5.43;88.27
72525;BME280;60547;48.502;8.996;2023-04-21T08:03:04;97530.75;;;5.58;87.88
72525;BME280;60547;48.502;8.996;2023-04-21T08:05:30;97515.59;;;5.73;88.55
72525;BME280;60547;48.502;8.996;2023-04-21T08:07:56;97512.63;;;5.57;88.19
72525;BME280;60547;48.502;8.996;2023-04-21T08:10:24;97519.72;;;5.92;86.47
72525;BME280;60547;48.502;8.996;2023-04-21T08:12:50;97509.75;;;5.67;86.73
72525;BME280;60547;48.502;8.996;2023-04-21T08:15:15;97523.31;;;5.55;89.23
72525;BME280;60547;48.502;8.996;2023-04-21T08:17:41;97520.88;;;5.94;87.38
72525;BME280;60547;48.502;8.996;2023-04-21T08:20:07;97519.72;;;6.19;87.21
72525;BME280;60547;48.502;8.996;2023-04-21T08:22:32;97509.81;;;6.48;86.67
72525;BME280;60547;48.502;8.996;2023-04-21T08:25:00;97521.03;;;6.37;86.51
72525;BME280;60547;48.502;8.996;2023-04-21T08:27:25;97509.19;;;6.37;85.26
72525;BME280;60547;48.502;8.996;2023-04-21T08:29:50;97504.44;;;6.37;84.76
72525;BME280;60547;48.502;8.996;2023-04-21T08:32:16;97502.38;;;6.68;85.21
72525;BME280;60547;48.502;8.996;2023-04-21T08:34:48;97504.59;;;6.77;85.16
72525;BME280;60547;48.502;8.996;2023-04-21T08:37:14;97511.44;;;6.92;83.95
72525;BME280;60547;48.502;8.996;2023-04-21T08:39:40;97512.91;;;6.77;83.64
72525;BME280;60547;48.502;8.996;2023-04-21T08:42:07;97511.38;;;6.96;84.51
72525;BME280;60547;48.502;8.996;2023-04-21T08:44:32;97500.22;;;6.56;86.58
72525;BME280;60547;48.502;8.996;2023-04-21T08:46:58;97520.03;;;6.51;85.07
72525;BME280;60547;48.502;8.996;2023-04-21T08:49:28;97512.94;;;6.73;85.46
72525;BME280;60547;48.502;8.996;2023-04-21T08:51:54;97510.66;;;6.92;85.67
72525;BME280;60547;48.502;8.996;2023-04-21T08:54:20;97503.97;;;7.12;84.40
72525;BME280;60547;48.502;8.996;2023-04-21T08:56:47;97509.22;;;7.27;84.85
72525;BME280;60547;48.502;8.996;2023-04-21T08:59:13;97499.66;;;7.31;84.96
72525;BME280;60547;48.502;8.996;2023-04-21T09:02:04;97507.03;;;7.58;85.68
72525;BME280;60547;48.502;8.996;2023-04-21T09:04:30;97489.09;;;7.66;84.83
72525;BME280;60547;48.502;8.996;2023-04-21T09:06:55;97484.19;;;7.73;83.96
72525;BME280;60547;48.502;8.996;2023-04-21T09:09:21;97482.47;;;7.60;83.62
72525;BME280;60547;48.502;8.996;2023-04-21T09:11:56;97476.94;;;7.60;83.43
72525;BME280;60547;48.502;8.996;2023-04-21T09:14:33;97485.97;;;7.64;84.51
72525;BME280;60547;48.502;8.996;2023-04-21T09:17:00;97472.25;;;7.76;84.44
72525;BME280;60547;48.502;8.996;2023-04-21T09:19:27;97474.44;;;7.85;83.68
72525;BME280;60547;48.502;8.996;2023-04-21T09:21:52;97471.13;;;8.26;84.32
72525;BME280;60547;48.502;8.996;2023-04-21T09:24:18;97453.41;;;8.56;82.51
72525;BME280;60547;48.502;8.996;2023-04-21T09:26:49;97458.91;;;8.89;81.07
72525;BME280;60547;48.502;8.996;2023-04-21T09:29:15;97456.09;;;9.05;79.29
72525;BME280;60547;48.502;8.996;2023-04-21T09:31:43;97441.91;;;8.87;79.28
72525;BME280;60547;48.502;8.996;2023-04-21T09:34:23;97451.88;;;9.00;80.94
72525;BME280;60547;48.502;8.996;2023-04-21T09:36:59;97437.44;;;9.34;83.52
72525;BME280;60547;48.502;8.996;2023-04-21T09:39:29;97433.22;;;9.84;79.75
72525;BME280;60547;48.502;8.996;2023-04-21T09:41:58;97436.31;;;9.86;78.98
72525;BME280;60547;48.502;8.996;2023-04-21T09:44:27;97434.22;;;10.03;78.21
72525;BME280;60547;48.502;8.996;2023-04-21T09:46:59;97430.56;;;10.19;77.99
72525;BME280;60547;48.502;8.996;2023-04-21T09:49:29;97433.03;;;10.29;76.49
72525;BME280;60547;48.502;8.996;2023-04-21T09:51:56;97440.25;;;10.40;76.24
72525;BME280;60547;48.502;8.996;2023-04-21T09:54:29;97441.78;;;10.53;76.65
72525;BME280;60547;48.502;8.996;2023-04-21T09:56:58;97436.19;;;10.66;74.77
72525;BME280;60547;48.502;8.996;2023-04-21T09:59:29;97430.47;;;10.82;74.16
72525;BME280;60547;48.502;8.996;2023-04-21T10:01:57;97427.97;;;10.97;74.15
72525;BME280;60547;48.502;8.996;2023-04-21T10:04:24;97418.53;;;11.16;74.54
72525;BME280;60547;48.502;8.996;2023-04-21T10:06:51;97416.34;;;11.55;73.65
72525;BME280;60547;48.502;8.996;2023-04-21T10:09:20;97410.56;;;12.02;71.68
72525;BME280;60547;48.502;8.996;2023-04-21T10:11:47;97420.78;;;12.45;72.36
72525;BME280;60547;48.502;8.996;2023-04-21T10:14:12;97415.25;;;12.54;68.71
72525;BME280;60547;48.502;8.996;2023-04-21T10:16:38;97410.91;;;12.63;67.01
72525;BME280;60547;48.502;8.996;2023-04-21T10:19:23;97409.56;;;12.85;69.40
72525;BME280;60547;48.502;8.996;2023-04-21T10:21:49;97407.22;;;13.02;69.09
72525;BME280;60547;48.502;8.996;2023-04-21T10:24:15;97405.56;;;13.23;66.70
72525;BME280;60547;48.502;8.996;2023-04-21T10:26:40;97392.78;;;13.49;65.95
72525;BME280;60547;48.502;8.996;2023-04-21T10:29:07;97393.06;;;13.70;66.41
72525;BME280;60547;48.502;8.996;2023-04-21T10:31:35;97388.22;;;13.79;64.80
72525;BME280;60547;48.502;8.996;2023-04-21T10:36:29;97391.94;;;13.76;63.66
72525;BME280;60547;48.502;8.996;2023-04-21T10:38:55;97394.44;;;13.74;62.55
72525;BME280;60547;48.502;8.996;2023-04-21T10:43:53;97390.00;;;14.01;61.94
72525;BME280;60547;48.502;8.996;2023-04-21T10:46:38;97387.13;;;14.52;62.73
72525;BME280;60547;48.502;8.996;2023-04-21T10:49:09;97387.72;;;14.80;60.16
72525;BME280;60547;48.502;8.996;2023-04-21T10:54:20;97364.50;;;15.03;58.71
72525;BME280;60547;48.502;8.996;2023-04-21T10:56:48;97363.41;;;14.86;58.92
72525;BME280;60547;48.502;8.996;2023-04-21T10:59:17;97368.25;;;14.85;60.37
72525;BME280;60547;48.502;8.996;2023-04-21T11:01:43;97357.84;;;15.01;58.88
72525;BME280;60547;48.502;8.996;2023-04-21T11:04:19;97352.13;;;15.63;61.14
72525;BME280;60547;48.502;8.996;2023-04-21T11:07:05;97360.28;;;16.11;58.77
72525;BME280;60547;48.502;8.996;2023-04-21T11:09:34;97339.25;;;16.21;58.79
72525;BME280;60547;48.502;8.996;2023-04-21T11:12:02;97351.16;;;16.31;56.32
72525;BME280;60547;48.502;8.996;2023-04-21T11:14:29;97348.13;;;16.34;56.39
72525;BME280;60547;48.502;8.996;2023-04-21T11:16:55;97345.97;;;16.09;56.47
72525;BME280;60547;48.502;8.996;2023-04-21T11:19:20;97333.13;;;16.58;57.56
72525;BME280;60547;48.502;8.996;2023-04-21T11:21:50;97336.66;;;16.73;56.94
72525;BME280;60547;48.502;8.996;2023-04-21T11:24:17;97327.53;;;16.78;55.85
72525;BME280;60547;48.502;8.996;2023-04-21T11:26:42;97331.28;;;17.16;54.59
72525;BME280;60547;48.502;8.996;2023-04-21T11:29:09;97333.38;;;17.21;57.28
72525;BME280;60547;48.502;8.996;2023-04-21T11:31:37;97332.00;;;17.36;55.74
72525;BME280;60547;48.502;8.996;2023-04-21T11:34:04;97323.34;;;17.14;54.20
72525;BME280;60547;48.502;8.996;2023-04-21T11:36:39;97320.78;;;16.90;56.34
72525;BME280;60547;48.502;8.996;2023-04-21T11:39:06;97322.84;;;17.16;53.83
72525;BME280;60547;48.502;8.996;2023-04-21T11:41:38;97315.03;;;16.79;55.29
72525;BME280;60547;48.502;8.996;2023-04-21T11:44:04;97316.28;;;16.98;57.68
72525;BME280;60547;48.502;8.996;2023-04-21T11:46:29;97329.19;;;17.10;55.33
72525;BME280;60547;48.502;8.996;2023-04-21T11:49:02;97323.00;;;17.58;54.36
72525;BME280;60547;48.502;8.996;2023-04-21T11:51:40;97320.16;;;17.53;54.06
72525;BME280;60547;48.502;8.996;2023-04-21T11:54:07;97317.38;;;17.58;52.35
72525;BME280;60547;48.502;8.996;2023-04-21T11:56:37;97306.41;;;17.92;53.45
72525;BME280;60547;48.502;8.996;2023-04-21T11:59:12;97306.47;;;17.97;54.60
72525;BME280;60547;48.502;8.996;2023-04-21T12:01:42;97303.59;;;17.92;54.14
72525;BME280;60547;48.502;8.996;2023-04-21T12:04:22;97295.78;;;18.55;51.38
72525;BME280;60547;48.502;8.996;2023-04-21T12:06:57;97294.63;;;18.30;51.50
72525;BME280;60547;48.502;8.996;2023-04-21T12:09:23;97291.59;;;18.34;52.85
72525;BME280;60547;48.502;8.996;2023-04-21T12:11:53;97291.25;;;18.69;52.34
72525;BME280;60547;48.502;8.996;2023-04-21T12:14:21;97285.97;;;17.65;51.22
72525;BME280;60547;48.502;8.996;2023-04-21T12:16:48;97286.50;;;18.44;50.96
72525;BME280;60547;48.502;8.996;2023-04-21T12:19:35;97282.28;;;18.65;51.56
72525;BME280;60547;48.502;8.996;2023-04-21T12:22:06;97277.66;;;18.67;49.11
72525;BME280;60547;48.502;8.996;2023-04-21T12:24:31;97281.38;;;19.01;50.23
72525;BME280;60547;48.502;8.996;2023-04-21T12:26:57;97278.81;;;18.44;48.90
72525;BME280;60547;48.502;8.996;2023-04-21T12:29:23;97269.34;;;19.07;49.29
72525;BME280;60547;48.502;8.996;2023-04-21T12:31:48;97276.81;;;19.43;50.20
72525;BME280;60547;48.502;8.996;2023-04-21T12:34:14;97273.91;;;18.93;47.94
72525;BME280;60547;48.502;8.996;2023-04-21T12:36:40;97265.53;;;19.38;48.06
72525;BME280;60547;48.502;8.996;2023-04-21T12:39:05;97261.09;;;18.97;48.22
72525;BME280;60547;48.502;8.996;2023-04-21T12:41:31;97264.75;;;19.31;47.59
72525;BME280;60547;48.502;8.996;2023-04-21T12:43:59;97262.91;;;18.95;48.50
72525;BME280;60547;48.502;8.996;2023-04-21T12:46:24;97260.50;;;18.71;50.18
72525;BME280;60547;48.502;8.996;2023-04-21T12:48:50;97248.31;;;19.08;48.31
72525;BME280;60547;48.502;8.996;2023-04-21T12:51:16;97263.44;;;19.04;47.64
72525;BME280;60547;48.502;8.996;2023-04-21T12:53:42;97252.66;;;19.09;47.73
72525;BME280;60547;48.502;8.996;2023-04-21T12:56:08;97254.72;;;19.02;48.91
72525;BME280;60547;48.502;8.996;2023-04-21T12:58:33;97252.75;;;19.53;49.48
72525;BME280;60547;48.502;8.996;2023-04-21T13:00:59;97245.53;;;19.41;47.19
72525;BME280;60547;48.502;8.996;2023-04-21T13:03:24;97248.09;;;19.50;47.57
72525;BME280;60547;48.502;8.996;2023-04-21T13:05:50;97250.66;;;19.37;46.88
72525;BME280;60547;48.502;8.996;2023-04-21T13:08:16;97256.31;;;19.48;45.67
72525;BME280;60547;48.502;8.996;2023-04-21T13:10:41;97250.13;;;20.06;47.38
72525;BME280;60547;48.502;8.996;2023-04-21T13:13:07;97236.56;;;19.65;45.85